sensor_id;sensor_type;location;lat;lon;timestamp;P1;durP1;ratioP1;P2;durP2;ratioP2
40044;SDS011;25735;48.122;11.422;2023-02-27T00:00:50;4.68;;;4.05;;
40044;SDS011;25735;48.122;11.422;2023-02-27T00:03:16;5.10;;;3.83;;
40044;SDS011;25735;48.122;11.422;2023-02-27T00:05:41;6.03;;;3.92;;
40044;SDS011;25735;48.122;11.422;2023-02-27T00:08:06;6.25;;;3.72;;
40044;SDS011;25735;48.122;11.422;2023-02-27T00:10:31;7.22;;;4.25;;
40044;SDS011;25735;48.122;11.422;2023-02-27T00:12:57;4.28;;;3.40;;
40044;SDS011;25735;48.122;11.422;2023-02-27T00:15:22;6.40;;;3.50;;
40044;SDS011;25735;48.122;11.422;2023-02-27T00:17:47;6.88;;;3.67;;
40044;SDS011;25735;48.122;11.422;2023-02-27T00:20:14;5.22;;;3.65;;
40044;SDS011;25735;48.122;11.422;2023-02-27T00:22:39;4.28;;;3.00;;
40044;SDS011;25735;48.122;11.422;2023-02-27T00:25:05;7.07;;;3.97;;
40044;SDS011;25735;48.122;11.422;2023-02-27T00:27:31;6.35;;;4.15;;
40044;SDS011;25735;48.122;11.422;2023-02-27T00:29:56;4.85;;;3.50;;
40044;SDS011;25735;48.122;11.422;2023-02-27T00:32:21;5.60;;;4.30;;
40044;SDS011;25735;48.122;11.422;2023-02-27T00:34:47;7.20;;;4.80;;
40044;SDS011;25735;48.122;11.422;2023-02-27T00:37:12;6.72;;;4.00;;
40044;SDS011;25735;48.122;11.422;2023-02-27T00:39:37;5.37;;;3.77;;
40044;SDS011;25735;48.122;11.422;2023-02-27T00:42:02;5.70;;;4.13;;
40044;SDS011;25735;48.122;11.422;2023-02-27T00:44:28;5.70;;;4.00;;
40044;SDS011;25735;48.122;11.422;2023-02-27T00:46:53;7.20;;;3.70;;
40044;SDS011;25735;48.122;11.422;2023-02-27T00:49:18;9.57;;;4.35;;
40044;SDS011;25735;48.122;11.422;2023-02-27T00:51:43;5.15;;;4.07;;
40044;SDS011;25735;48.122;11.422;2023-02-27T00:54:09;6.78;;;3.95;;
40044;SDS011;25735;48.122;11.422;2023-02-27T00:56:34;5.57;;;3.72;;
40044;SDS011;25735;48.122;11.422;2023-02-27T00:58:59;6.37;;;4.30;;
40044;SDS011;25735;48.122;11.422;2023-02-27T01:01:24;5.80;;;3.80;;
40044;SDS011;25735;48.122;11.422;2023-02-27T01:03:49;11.82;;;5.88;;
40044;SDS011;25735;48.122;11.422;2023-02-27T01:06:14;8.68;;;4.55;;
40044;SDS011;25735;48.122;11.422;2023-02-27T01:08:39;5.25;;;3.63;;
40044;SDS011;25735;48.122;11.422;2023-02-27T01:11:05;5.78;;;4.18;;
40044;SDS011;25735;48.122;11.422;2023-02-27T01:13:30;7.23;;;4.07;;
40044;SDS011;25735;48.122;11.422;2023-02-27T01:15:55;7.97;;;4.65;;
40044;SDS011;25735;48.122;11.422;2023-02-27T01:18:20;5.93;;;4.40;;
40044;SDS011;25735;48.122;11.422;2023-02-27T01:20:45;6.20;;;4.37;;
40044;SDS011;25735;48.122;11.422;2023-02-27T01:23:10;5.97;;;4.50;;
40044;SDS011;25735;48.122;11.422;2023-02-27T01:25:36;7.77;;;4.47;;
40044;SDS011;25735;48.122;11.422;2023-02-27T01:28:01;5.03;;;3.78;;
40044;SDS011;25735;48.122;11.422;2023-02-27T01:30:26;6.03;;;4.13;;
40044;SDS011;25735;48.122;11.422;2023-02-27T01:32:51;7.00;;;5.00;;
40044;SDS011;25735;48.122;11.422;2023-02-27T01:35:16;6.78;;;3.40;;
40044;SDS011;25735;48.122;11.422;2023-02-27T01:37:42;5.25;;;3.90;;
40044;SDS011;25735;48.122;11.422;2023-02-27T01:40:07;8.32;;;4.20;;
40044;SDS011;25735;48.122;11.422;2023-02-27T01:42:33;7.57;;;4.60;;
40044;SDS011;25735;48.122;11.422;2023-02-27T01:45:06;7.10;;;4.43;;
40044;SDS011;25735;48.122;11.422;2023-02-27T01:47:33;5.88;;;3.28;;
40044;SDS011;25735;48.122;11.422;2023-02-27T01:49:59;5.78;;;3.88;;
40044;SDS011;25735;48.122;11.422;2023-02-27T01:52:24;6.80;;;4.13;;
40044;SDS011;25735;48.122;11.422;2023-02-27T01:54:49;7.60;;;4.38;;
40044;SDS011;25735;48.122;11.422;2023-02-27T01:57:14;5.60;;;4.20;;
40044;SDS011;25735;48.122;11.422;2023-02-27T01:59:40;5.07;;;4.28;;
40044;SDS011;25735;48.122;11.422;2023-02-27T02:02:08;7.18;;;3.70;;
40044;SDS011;25735;48.122;11.422;2023-02-27T02:04:37;6.30;;;4.00;;
40044;SDS011;25735;48.122;11.422;2023-02-27T02:07:04;6.13;;;4.45;;
40044;SDS011;25735;48.122;11.422;2023-02-27T02:09:31;7.53;;;4.72;;
40044;SDS011;25735;48.122;11.422;2023-02-27T02:11:58;7.35;;;4.63;;
40044;SDS011;25735;48.122;11.422;2023-02-27T02:14:24;5.22;;;4.13;;
40044;SDS011;25735;48.122;11.422;2023-02-27T02:40:33;5.75;;;3.83;;
40044;SDS011;25735;48.122;11.422;2023-02-27T02:45:26;7.25;;;3.67;;
40044;SDS011;25735;48.122;11.422;2023-02-27T02:47:59;5.70;;;3.47;;
40044;SDS011;25735;48.122;11.422;2023-02-27T02:50:28;3.45;;;2.42;;
40044;SDS011;25735;48.122;11.422;2023-02-27T02:53:16;7.80;;;4.63;;
40044;SDS011;25735;48.122;11.422;2023-02-27T02:55:43;5.82;;;4.15;;
40044;SDS011;25735;48.122;11.422;2023-02-27T02:58:20;5.70;;;4.05;;
40044;SDS011;25735;48.122;11.422;2023-02-27T03:00:47;3.60;;;3.20;;
40044;SDS011;25735;48.122;11.422;2023-02-27T03:03:33;5.53;;;3.83;;
40044;SDS011;25735;48.122;11.422;2023-02-27T03:06:01;5.00;;;3.78;;
40044;SDS011;25735;48.122;11.422;2023-02-27T03:08:28;6.63;;;4.10;;
40044;SDS011;25735;48.122;11.422;2023-02-27T03:10:56;6.57;;;3.72;;
40044;SDS011;25735;48.122;11.422;2023-02-27T03:13:25;5.90;;;4.10;;
40044;SDS011;25735;48.122;11.422;2023-02-27T03:16:10;5.60;;;3.67;;
40044;SDS011;25735;48.122;11.422;2023-02-27T03:18:36;4.95;;;3.40;;
40044;SDS011;25735;48.122;11.422;2023-02-27T03:21:04;5.60;;;4.47;;
40044;SDS011;25735;48.122;11.422;2023-02-27T03:23:33;4.20;;;3.45;;
40044;SDS011;25735;48.122;11.422;2023-02-27T03:25:59;6.35;;;3.80;;
40044;SDS011;25735;48.122;11.422;2023-02-27T03:28:26;4.22;;;3.33;;
40044;SDS011;25735;48.122;11.422;2023-02-27T03:31:26;5.82;;;4.70;;
40044;SDS011;25735;48.122;11.422;2023-02-27T03:33:47;6.15;;;3.67;;
40044;SDS011;25735;48.122;11.422;2023-02-27T03:38:42;7.22;;;4.57;;
40044;SDS011;25735;48.122;11.422;2023-02-27T03:43:58;7.10;;;4.13;;
40044;SDS011;25735;48.122;11.422;2023-02-27T03:46:26;6.35;;;3.95;;
40044;SDS011;25735;48.122;11.422;2023-02-27T03:48:52;6.22;;;3.85;;
40044;SDS011;25735;48.122;11.422;2023-02-27T03:51:17;6.90;;;4.68;;
40044;SDS011;25735;48.122;11.422;2023-02-27T03:56:08;5.57;;;4.57;;
40044;SDS011;25735;48.122;11.422;2023-02-27T03:58:34;6.05;;;4.90;;
40044;SDS011;25735;48.122;11.422;2023-02-27T04:01:00;6.63;;;4.05;;
40044;SDS011;25735;48.122;11.422;2023-02-27T04:03:25;6.78;;;4.25;;
40044;SDS011;25735;48.122;11.422;2023-02-27T04:05:50;8.32;;;4.70;;
40044;SDS011;25735;48.122;11.422;2023-02-27T04:18:42;4.65;;;3.58;;
40044;SDS011;25735;48.122;11.422;2023-02-27T04:21:18;7.63;;;3.67;;
40044;SDS011;25735;48.122;11.422;2023-02-27T04:31:28;4.75;;;3.88;;
40044;SDS011;25735;48.122;11.422;2023-02-27T04:36:40;4.85;;;3.83;;
40044;SDS011;25735;48.122;11.422;2023-02-27T04:39:07;6.57;;;4.15;;
40044;SDS011;25735;48.122;11.422;2023-02-27T04:41:37;5.97;;;4.25;;
40044;SDS011;25735;48.122;11.422;2023-02-27T04:44:04;4.95;;;3.40;;
40044;SDS011;25735;48.122;11.422;2023-02-27T04:46:31;4.53;;;3.60;;
40044;SDS011;25735;48.122;11.422;2023-02-27T04:48:59;7.53;;;3.85;;
40044;SDS011;25735;48.122;11.422;2023-02-27T04:51:33;5.55;;;3.72;;
40044;SDS011;25735;48.122;11.422;2023-02-27T04:54:00;5.75;;;3.67;;
40044;SDS011;25735;48.122;11.422;2023-02-27T04:56:28;5.22;;;3.63;;
40044;SDS011;25735;48.122;11.422;2023-02-27T04:58:59;5.22;;;3.58;;
40044;SDS011;25735;48.122;11.422;2023-02-27T05:01:36;6.50;;;4.72;;
40044;SDS011;25735;48.122;11.422;2023-02-27T05:04:04;6.57;;;4.15;;
40044;SDS011;25735;48.122;11.422;2023-02-27T05:06:31;7.47;;;3.80;;
40044;SDS011;25735;48.122;11.422;2023-02-27T05:08:59;6.68;;;4.00;;
40044;SDS011;25735;48.122;11.422;2023-02-27T05:11:28;8.00;;;3.38;;
40044;SDS011;25735;48.122;11.422;2023-02-27T05:14:00;6.25;;;4.07;;
40044;SDS011;25735;48.122;11.422;2023-02-27T05:16:30;8.43;;;3.92;;
40044;SDS011;25735;48.122;11.422;2023-02-27T05:18:57;4.35;;;3.95;;
40044;SDS011;25735;48.122;11.422;2023-02-27T05:32:10;5.60;;;4.53;;
40044;SDS011;25735;48.122;11.422;2023-02-27T05:34:41;5.15;;;4.07;;
40044;SDS011;25735;48.122;11.422;2023-02-27T05:37:18;6.03;;;4.35;;
40044;SDS011;25735;48.122;11.422;2023-02-27T05:39:44;8.52;;;4.60;;
40044;SDS011;25735;48.122;11.422;2023-02-27T05:42:27;6.40;;;4.50;;
40044;SDS011;25735;48.122;11.422;2023-02-27T05:44:54;6.93;;;4.50;;
40044;SDS011;25735;48.122;11.422;2023-02-27T05:47:21;6.95;;;4.50;;
40044;SDS011;25735;48.122;11.422;2023-02-27T05:50:07;6.35;;;4.35;;
40044;SDS011;25735;48.122;11.422;2023-02-27T05:52:34;6.95;;;4.07;;
40044;SDS011;25735;48.122;11.422;2023-02-27T05:55:02;6.13;;;4.05;;
40044;SDS011;25735;48.122;11.422;2023-02-27T05:57:31;7.22;;;4.78;;
40044;SDS011;25735;48.122;11.422;2023-02-27T06:00:07;6.63;;;4.35;;
40044;SDS011;25735;48.122;11.422;2023-02-27T06:02:35;5.45;;;4.00;;
40044;SDS011;25735;48.122;11.422;2023-02-27T06:05:00;8.30;;;4.90;;
40044;SDS011;25735;48.122;11.422;2023-02-27T06:07:25;6.17;;;4.23;;
40044;SDS011;25735;48.122;11.422;2023-02-27T06:09:50;6.40;;;4.53;;
40044;SDS011;25735;48.122;11.422;2023-02-27T06:12:15;4.15;;;3.38;;
40044;SDS011;25735;48.122;11.422;2023-02-27T06:14:41;6.18;;;3.75;;
40044;SDS011;25735;48.122;11.422;2023-02-27T06:17:06;5.28;;;3.90;;
40044;SDS011;25735;48.122;11.422;2023-02-27T06:19:31;5.32;;;4.32;;
40044;SDS011;25735;48.122;11.422;2023-02-27T06:21:56;4.75;;;4.22;;
40044;SDS011;25735;48.122;11.422;2023-02-27T06:24:21;8.73;;;5.40;;
40044;SDS011;25735;48.122;11.422;2023-02-27T06:26:46;7.63;;;4.07;;
40044;SDS011;25735;48.122;11.422;2023-02-27T06:29:12;5.90;;;3.47;;
40044;SDS011;25735;48.122;11.422;2023-02-27T06:31:37;5.50;;;3.92;;
40044;SDS011;25735;48.122;11.422;2023-02-27T06:34:02;6.38;;;4.47;;
40044;SDS011;25735;48.122;11.422;2023-02-27T06:36:28;5.72;;;3.65;;
40044;SDS011;25735;48.122;11.422;2023-02-27T06:38:53;6.53;;;4.20;;
40044;SDS011;25735;48.122;11.422;2023-02-27T06:41:18;5.18;;;3.88;;
40044;SDS011;25735;48.122;11.422;2023-02-27T06:43:44;5.23;;;3.70;;
40044;SDS011;25735;48.122;11.422;2023-02-27T06:46:09;6.17;;;4.73;;
40044;SDS011;25735;48.122;11.422;2023-02-27T06:48:34;6.78;;;3.75;;
40044;SDS011;25735;48.122;11.422;2023-02-27T06:50:59;5.88;;;3.83;;
40044;SDS011;25735;48.122;11.422;2023-02-27T06:53:24;5.10;;;3.90;;
40044;SDS011;25735;48.122;11.422;2023-02-27T06:55:49;4.85;;;3.78;;
40044;SDS011;25735;48.122;11.422;2023-02-27T06:58:15;5.53;;;3.67;;
40044;SDS011;25735;48.122;11.422;2023-02-27T07:00:40;5.03;;;3.55;;
40044;SDS011;25735;48.122;11.422;2023-02-27T07:03:06;7.05;;;3.42;;
40044;SDS011;25735;48.122;11.422;2023-02-27T07:05:31;5.38;;;4.30;;
40044;SDS011;25735;48.122;11.422;2023-02-27T07:07:56;6.20;;;4.30;;
40044;SDS011;25735;48.122;11.422;2023-02-27T07:10:22;6.03;;;4.45;;
40044;SDS011;25735;48.122;11.422;2023-02-27T07:12:47;6.13;;;4.00;;
40044;SDS011;25735;48.122;11.422;2023-02-27T07:15:13;8.10;;;4.53;;
40044;SDS011;25735;48.122;11.422;2023-02-27T07:17:38;5.18;;;3.20;;
40044;SDS011;25735;48.122;11.422;2023-02-27T07:20:04;4.65;;;3.40;;
40044;SDS011;25735;48.122;11.422;2023-02-27T07:22:30;4.93;;;3.20;;
40044;SDS011;25735;48.122;11.422;2023-02-27T07:24:55;5.23;;;3.70;;
40044;SDS011;25735;48.122;11.422;2023-02-27T07:27:20;4.45;;;3.33;;
40044;SDS011;25735;48.122;11.422;2023-02-27T07:29:45;5.28;;;3.13;;
40044;SDS011;25735;48.122;11.422;2023-02-27T07:32:10;3.28;;;2.85;;
40044;SDS011;25735;48.122;11.422;2023-02-27T07:34:36;4.07;;;3.47;;
40044;SDS011;25735;48.122;11.422;2023-02-27T07:37:01;3.13;;;2.80;;
40044;SDS011;25735;48.122;11.422;2023-02-27T07:39:26;4.20;;;3.42;;
40044;SDS011;25735;48.122;11.422;2023-02-27T07:41:51;5.10;;;3.50;;
40044;SDS011;25735;48.122;11.422;2023-02-27T07:44:16;5.20;;;3.53;;
40044;SDS011;25735;48.122;11.422;2023-02-27T07:46:42;5.25;;;3.20;;
40044;SDS011;25735;48.122;11.422;2023-02-27T07:49:08;4.68;;;3.40;;
40044;SDS011;25735;48.122;11.422;2023-02-27T07:51:33;4.47;;;3.15;;
40044;SDS011;25735;48.122;11.422;2023-02-27T07:53:58;7.97;;;3.28;;
40044;SDS011;25735;48.122;11.422;2023-02-27T07:56:24;6.13;;;3.42;;
40044;SDS011;25735;48.122;11.422;2023-02-27T07:58:49;5.20;;;3.60;;
40044;SDS011;25735;48.122;11.422;2023-02-27T08:01:14;4.82;;;3.03;;
40044;SDS011;25735;48.122;11.422;2023-02-27T08:03:40;5.27;;;3.73;;
40044;SDS011;25735;48.122;11.422;2023-02-27T08:06:05;9.70;;;4.28;;
40044;SDS011;25735;48.122;11.422;2023-02-27T08:08:30;5.05;;;3.50;;
40044;SDS011;25735;48.122;11.422;2023-02-27T08:10:55;5.75;;;3.55;;
40044;SDS011;25735;48.122;11.422;2023-02-27T08:13:20;4.80;;;2.95;;
40044;SDS011;25735;48.122;11.422;2023-02-27T08:15:46;3.75;;;3.33;;
40044;SDS011;25735;48.122;11.422;2023-02-27T08:18:11;8.43;;;4.10;;
40044;SDS011;25735;48.122;11.422;2023-02-27T08:20:36;5.32;;;3.60;;
40044;SDS011;25735;48.122;11.422;2023-02-27T08:23:02;5.77;;;3.93;;
40044;SDS011;25735;48.122;11.422;2023-02-27T08:25:27;5.22;;;3.97;;
40044;SDS011;25735;48.122;11.422;2023-02-27T08:27:54;4.88;;;3.72;;
40044;SDS011;25735;48.122;11.422;2023-02-27T08:30:19;4.13;;;2.92;;
40044;SDS011;25735;48.122;11.422;2023-02-27T08:32:44;5.22;;;3.35;;
40044;SDS011;25735;48.122;11.422;2023-02-27T08:35:10;4.95;;;4.18;;
40044;SDS011;25735;48.122;11.422;2023-02-27T08:37:35;5.18;;;3.40;;
40044;SDS011;25735;48.122;11.422;2023-02-27T08:40:00;4.03;;;3.38;;
40044;SDS011;25735;48.122;11.422;2023-02-27T08:42:25;4.40;;;3.60;;
40044;SDS011;25735;48.122;11.422;2023-02-27T08:44:50;8.68;;;3.85;;
40044;SDS011;25735;48.122;11.422;2023-02-27T08:47:16;6.45;;;3.53;;
40044;SDS011;25735;48.122;11.422;2023-02-27T08:49:41;4.32;;;3.33;;
40044;SDS011;25735;48.122;11.422;2023-02-27T08:52:06;8.57;;;4.28;;
40044;SDS011;25735;48.122;11.422;2023-02-27T08:54:33;5.28;;;3.88;;
40044;SDS011;25735;48.122;11.422;2023-02-27T08:56:59;7.43;;;4.45;;
40044;SDS011;25735;48.122;11.422;2023-02-27T08:59:24;6.20;;;3.90;;
40044;SDS011;25735;48.122;11.422;2023-02-27T09:01:49;5.68;;;3.85;;
40044;SDS011;25735;48.122;11.422;2023-02-27T09:04:14;4.68;;;3.58;;
40044;SDS011;25735;48.122;11.422;2023-02-27T09:06:40;6.07;;;3.92;;
40044;SDS011;25735;48.122;11.422;2023-02-27T09:09:05;3.90;;;3.50;;
40044;SDS011;25735;48.122;11.422;2023-02-27T09:11:30;4.93;;;4.32;;
40044;SDS011;25735;48.122;11.422;2023-02-27T09:13:56;7.18;;;3.65;;
40044;SDS011;25735;48.122;11.422;2023-02-27T09:16:22;6.93;;;3.97;;
40044;SDS011;25735;48.122;11.422;2023-02-27T09:18:48;5.65;;;3.60;;
40044;SDS011;25735;48.122;11.422;2023-02-27T09:21:14;6.82;;;4.00;;
40044;SDS011;25735;48.122;11.422;2023-02-27T09:23:39;5.68;;;3.85;;
40044;SDS011;25735;48.122;11.422;2023-02-27T09:26:04;8.13;;;4.13;;
40044;SDS011;25735;48.122;11.422;2023-02-27T09:28:30;7.90;;;4.80;;
40044;SDS011;25735;48.122;11.422;2023-02-27T09:30:59;7.10;;;4.13;;
40044;SDS011;25735;48.122;11.422;2023-02-27T09:33:24;5.72;;;4.13;;
40044;SDS011;25735;48.122;11.422;2023-02-27T09:35:50;5.25;;;3.90;;
40044;SDS011;25735;48.122;11.422;2023-02-27T09:38:16;8.57;;;4.57;;
40044;SDS011;25735;48.122;11.422;2023-02-27T09:40:41;8.30;;;3.90;;
40044;SDS011;25735;48.122;11.422;2023-02-27T09:43:09;5.85;;;3.90;;
40044;SDS011;25735;48.122;11.422;2023-02-27T09:45:34;4.72;;;3.97;;
40044;SDS011;25735;48.122;11.422;2023-02-27T09:48:07;8.38;;;4.03;;
40044;SDS011;25735;48.122;11.422;2023-02-27T09:53:02;9.18;;;5.22;;
40044;SDS011;25735;48.122;11.422;2023-02-27T09:55:29;8.70;;;4.03;;
40044;SDS011;25735;48.122;11.422;2023-02-27T09:58:00;7.93;;;4.53;;
40044;SDS011;25735;48.122;11.422;2023-02-27T10:00:44;6.75;;;3.92;;
40044;SDS011;25735;48.122;11.422;2023-02-27T10:05:51;7.55;;;5.00;;
40044;SDS011;25735;48.122;11.422;2023-02-27T10:08:25;7.75;;;4.20;;
40044;SDS011;25735;48.122;11.422;2023-02-27T10:11:00;7.28;;;4.40;;
40044;SDS011;25735;48.122;11.422;2023-02-27T10:13:29;6.97;;;4.72;;
40044;SDS011;25735;48.122;11.422;2023-02-27T10:15:57;12.40;;;4.53;;
40044;SDS011;25735;48.122;11.422;2023-02-27T10:18:27;8.40;;;5.43;;
40044;SDS011;25735;48.122;11.422;2023-02-27T10:20:58;6.68;;;4.85;;
40044;SDS011;25735;48.122;11.422;2023-02-27T10:23:33;7.40;;;4.88;;
40044;SDS011;25735;48.122;11.422;2023-02-27T10:25:59;5.80;;;4.20;;
40044;SDS011;25735;48.122;11.422;2023-02-27T10:28:25;5.50;;;4.32;;
40044;SDS011;25735;48.122;11.422;2023-02-27T10:30:51;5.88;;;4.07;;
40044;SDS011;25735;48.122;11.422;2023-02-27T10:33:24;7.82;;;4.20;;
40044;SDS011;25735;48.122;11.422;2023-02-27T10:35:51;6.18;;;4.07;;
40044;SDS011;25735;48.122;11.422;2023-02-27T10:38:39;6.70;;;4.30;;
40044;SDS011;25735;48.122;11.422;2023-02-27T10:41:03;6.20;;;4.28;;
40044;SDS011;25735;48.122;11.422;2023-02-27T10:43:28;6.72;;;4.03;;
40044;SDS011;25735;48.122;11.422;2023-02-27T10:45:53;6.30;;;4.43;;
40044;SDS011;25735;48.122;11.422;2023-02-27T10:48:19;7.05;;;4.93;;
40044;SDS011;25735;48.122;11.422;2023-02-27T10:50:47;6.55;;;4.38;;
40044;SDS011;25735;48.122;11.422;2023-02-27T10:53:23;7.43;;;4.20;;
40044;SDS011;25735;48.122;11.422;2023-02-27T10:58:22;6.13;;;4.15;;
40044;SDS011;25735;48.122;11.422;2023-02-27T11:03:20;4.57;;;3.30;;
40044;SDS011;25735;48.122;11.422;2023-02-27T11:05:51;5.78;;;3.25;;
40044;SDS011;25735;48.122;11.422;2023-02-27T11:08:21;4.03;;;3.33;;
40044;SDS011;25735;48.122;11.422;2023-02-27T11:10:54;5.53;;;3.00;;
40044;SDS011;25735;48.122;11.422;2023-02-27T11:13:20;4.88;;;2.85;;
40044;SDS011;25735;48.122;11.422;2023-02-27T11:15:46;4.82;;;3.20;;
40044;SDS011;25735;48.122;11.422;2023-02-27T11:18:25;3.50;;;2.65;;
40044;SDS011;25735;48.122;11.422;2023-02-27T11:20:51;8.73;;;2.47;;
40044;SDS011;25735;48.122;11.422;2023-02-27T11:23:21;5.07;;;2.72;;
40044;SDS011;25735;48.122;11.422;2023-02-27T11:25:47;6.97;;;2.85;;
40044;SDS011;25735;48.122;11.422;2023-02-27T11:28:22;6.45;;;3.38;;
40044;SDS011;25735;48.122;11.422;2023-02-27T11:31:01;4.40;;;2.60;;
40044;SDS011;25735;48.122;11.422;2023-02-27T11:33:27;3.95;;;2.80;;
40044;SDS011;25735;48.122;11.422;2023-02-27T11:35:54;4.75;;;2.60;;
40044;SDS011;25735;48.122;11.422;2023-02-27T11:38:23;3.22;;;2.88;;
40044;SDS011;25735;48.122;11.422;2023-02-27T11:40:51;5.30;;;2.90;;
40044;SDS011;25735;48.122;11.422;2023-02-27T11:45:49;6.50;;;3.50;;
40044;SDS011;25735;48.122;11.422;2023-02-27T11:48:19;4.47;;;2.35;;
40044;SDS011;25735;48.122;11.422;2023-02-27T11:50:57;6.28;;;2.58;;
40044;SDS011;25735;48.122;11.422;2023-02-27T11:53:42;4.05;;;2.45;;
40044;SDS011;25735;48.122;11.422;2023-02-27T11:56:14;2.45;;;2.10;;
40044;SDS011;25735;48.122;11.422;2023-02-27T11:58:43;3.13;;;2.35;;
40044;SDS011;25735;48.122;11.422;2023-02-27T12:01:14;5.00;;;2.38;;
40044;SDS011;25735;48.122;11.422;2023-02-27T12:06:16;2.63;;;2.10;;
40044;SDS011;25735;48.122;11.422;2023-02-27T12:08:49;2.22;;;2.03;;
40044;SDS011;25735;48.122;11.422;2023-02-27T12:11:17;4.85;;;2.40;;
40044;SDS011;25735;48.122;11.422;2023-02-27T12:13:46;3.17;;;2.00;;
40044;SDS011;25735;48.122;11.422;2023-02-27T12:16:33;2.92;;;1.92;;
40044;SDS011;25735;48.122;11.422;2023-02-27T12:22:47;3.58;;;1.88;;
40044;SDS011;25735;48.122;11.422;2023-02-27T12:24:54;3.53;;;2.17;;
40044;SDS011;25735;48.122;11.422;2023-02-27T12:27:23;3.25;;;1.92;;
40044;SDS011;25735;48.122;11.422;2023-02-27T12:33:08;3.15;;;1.63;;
40044;SDS011;25735;48.122;11.422;2023-02-27T12:37:42;4.40;;;2.33;;
40044;SDS011;25735;48.122;11.422;2023-02-27T12:40:12;2.15;;;1.90;;
40044;SDS011;25735;48.122;11.422;2023-02-27T12:50:38;3.58;;;2.22;;
40044;SDS011;25735;48.122;11.422;2023-02-27T12:55:40;3.92;;;2.30;;
40044;SDS011;25735;48.122;11.422;2023-02-27T13:00:44;5.57;;;3.17;;
40044;SDS011;25735;48.122;11.422;2023-02-27T13:05:43;4.25;;;2.83;;
40044;SDS011;25735;48.122;11.422;2023-02-27T13:08:19;2.58;;;2.00;;
40044;SDS011;25735;48.122;11.422;2023-02-27T13:10:49;5.10;;;2.50;;
40044;SDS011;25735;48.122;11.422;2023-02-27T13:13:19;3.58;;;2.47;;
40044;SDS011;25735;48.122;11.422;2023-02-27T13:15:52;4.63;;;2.60;;
40044;SDS011;25735;48.122;11.422;2023-02-27T13:18:35;5.90;;;2.40;;
40044;SDS011;25735;48.122;11.422;2023-02-27T13:21:05;5.40;;;2.42;;
40044;SDS011;25735;48.122;11.422;2023-02-27T13:26:05;4.15;;;2.33;;
40044;SDS011;25735;48.122;11.422;2023-02-27T13:28:32;4.68;;;2.75;;
40044;SDS011;25735;48.122;11.422;2023-02-27T13:31:00;4.50;;;2.50;;
40044;SDS011;25735;48.122;11.422;2023-02-27T13:36:02;3.67;;;2.47;;
40044;SDS011;25735;48.122;11.422;2023-02-27T13:41:32;3.35;;;2.40;;
40044;SDS011;25735;48.122;11.422;2023-02-27T13:44:36;4.43;;;2.28;;
40044;SDS011;25735;48.122;11.422;2023-02-27T13:46:45;3.92;;;2.20;;
40044;SDS011;25735;48.122;11.422;2023-02-27T13:49:24;7.45;;;2.88;;
40044;SDS011;25735;48.122;11.422;2023-02-27T13:51:51;4.60;;;2.75;;
40044;SDS011;25735;48.122;11.422;2023-02-27T13:54:18;3.03;;;2.10;;
40044;SDS011;25735;48.122;11.422;2023-02-27T14:01:53;3.55;;;2.83;;
40044;SDS011;25735;48.122;11.422;2023-02-27T14:04:19;4.75;;;2.58;;
40044;SDS011;25735;48.122;11.422;2023-02-27T14:06:46;3.97;;;2.45;;
40044;SDS011;25735;48.122;11.422;2023-02-27T14:09:12;4.68;;;3.28;;
40044;SDS011;25735;48.122;11.422;2023-02-27T14:11:40;6.28;;;2.63;;
40044;SDS011;25735;48.122;11.422;2023-02-27T14:14:35;5.25;;;2.40;;
40044;SDS011;25735;48.122;11.422;2023-02-27T14:17:00;3.42;;;2.60;;
40044;SDS011;25735;48.122;11.422;2023-02-27T14:19:48;3.90;;;2.78;;
40044;SDS011;25735;48.122;11.422;2023-02-27T14:27:29;5.63;;;3.10;;
40044;SDS011;25735;48.122;11.422;2023-02-27T14:29:56;4.75;;;2.85;;
40044;SDS011;25735;48.122;11.422;2023-02-27T14:32:23;4.50;;;2.80;;
40044;SDS011;25735;48.122;11.422;2023-02-27T14:34:49;3.95;;;3.17;;
40044;SDS011;25735;48.122;11.422;2023-02-27T14:37:16;4.88;;;3.38;;
40044;SDS011;25735;48.122;11.422;2023-02-27T14:39:42;4.57;;;3.03;;
40044;SDS011;25735;48.122;11.422;2023-02-27T14:44:42;4.22;;;3.35;;
40044;SDS011;25735;48.122;11.422;2023-02-27T14:47:12;7.40;;;2.85;;
40044;SDS011;25735;48.122;11.422;2023-02-27T14:49:38;5.40;;;3.47;;
40044;SDS011;25735;48.122;11.422;2023-02-27T14:52:10;5.63;;;3.30;;
40044;SDS011;25735;48.122;11.422;2023-02-27T14:54:36;4.25;;;2.90;;
40044;SDS011;25735;48.122;11.422;2023-02-27T14:57:03;4.55;;;3.50;;
40044;SDS011;25735;48.122;11.422;2023-02-27T15:01:53;6.15;;;3.22;;
40044;SDS011;25735;48.122;11.422;2023-02-27T15:04:20;5.22;;;3.47;;
40044;SDS011;25735;48.122;11.422;2023-02-27T15:06:46;16.85;;;4.00;;
40044;SDS011;25735;48.122;11.422;2023-02-27T15:09:22;3.85;;;3.13;;
40044;SDS011;25735;48.122;11.422;2023-02-27T15:11:52;4.40;;;2.95;;
40044;SDS011;25735;48.122;11.422;2023-02-27T15:14:19;6.05;;;3.63;;
40044;SDS011;25735;48.122;11.422;2023-02-27T15:16:45;4.28;;;3.00;;
40044;SDS011;25735;48.122;11.422;2023-02-27T15:19:17;4.30;;;3.55;;
40044;SDS011;25735;48.122;11.422;2023-02-27T15:21:45;6.18;;;3.30;;
40044;SDS011;25735;48.122;11.422;2023-02-27T15:24:30;6.53;;;3.22;;
40044;SDS011;25735;48.122;11.422;2023-02-27T15:26:57;3.40;;;3.10;;
40044;SDS011;25735;48.122;11.422;2023-02-27T15:29:24;4.45;;;3.13;;
40044;SDS011;25735;48.122;11.422;2023-02-27T15:31:50;4.80;;;3.35;;
40044;SDS011;25735;48.122;11.422;2023-02-27T15:34:15;6.25;;;3.15;;
40044;SDS011;25735;48.122;11.422;2023-02-27T15:36:44;3.83;;;3.17;;
40044;SDS011;25735;48.122;11.422;2023-02-27T15:39:17;5.07;;;3.17;;
40044;SDS011;25735;48.122;11.422;2023-02-27T15:41:44;5.93;;;3.97;;
40044;SDS011;25735;48.122;11.422;2023-02-27T15:44:10;3.97;;;3.20;;
40044;SDS011;25735;48.122;11.422;2023-02-27T15:46:36;6.07;;;3.85;;
40044;SDS011;25735;48.122;11.422;2023-02-27T15:49:01;9.32;;;3.25;;
40044;SDS011;25735;48.122;11.422;2023-02-27T15:51:26;5.25;;;4.10;;
40044;SDS011;25735;48.122;11.422;2023-02-27T15:53:53;3.75;;;2.47;;
40044;SDS011;25735;48.122;11.422;2023-02-27T15:56:19;4.57;;;3.55;;
40044;SDS011;25735;48.122;11.422;2023-02-27T15:58:47;5.78;;;3.28;;
40044;SDS011;25735;48.122;11.422;2023-02-27T16:01:21;7.60;;;4.00;;
40044;SDS011;25735;48.122;11.422;2023-02-27T16:03:47;5.25;;;3.38;;
40044;SDS011;25735;48.122;11.422;2023-02-27T16:06:29;5.05;;;4.00;;
40044;SDS011;25735;48.122;11.422;2023-02-27T16:08:55;4.60;;;3.78;;
40044;SDS011;25735;48.122;11.422;2023-02-27T16:11:26;3.55;;;2.90;;
40044;SDS011;25735;48.122;11.422;2023-02-27T16:13:51;4.90;;;3.50;;
40044;SDS011;25735;48.122;11.422;2023-02-27T16:18:58;4.10;;;3.40;;
40044;SDS011;25735;48.122;11.422;2023-02-27T16:21:25;7.05;;;4.38;;
40044;SDS011;25735;48.122;11.422;2023-02-27T16:23:50;6.35;;;3.95;;
40044;SDS011;25735;48.122;11.422;2023-02-27T16:26:26;5.32;;;3.63;;
40044;SDS011;25735;48.122;11.422;2023-02-27T16:28:53;4.13;;;3.05;;
40044;SDS011;25735;48.122;11.422;2023-02-27T16:31:23;5.45;;;4.10;;
40044;SDS011;25735;48.122;11.422;2023-02-27T16:33:49;6.93;;;3.90;;
40044;SDS011;25735;48.122;11.422;2023-02-27T16:36:18;4.90;;;3.90;;
40044;SDS011;25735;48.122;11.422;2023-02-27T16:38:44;7.38;;;5.10;;
40044;SDS011;25735;48.122;11.422;2023-02-27T16:41:10;5.32;;;3.65;;
40044;SDS011;25735;48.122;11.422;2023-02-27T16:43:35;9.40;;;4.22;;
40044;SDS011;25735;48.122;11.422;2023-02-27T16:46:00;4.87;;;3.90;;
40044;SDS011;25735;48.122;11.422;2023-02-27T16:48:25;7.30;;;4.40;;